createdAt,value
2019-05-30T00:00:06.884Z,101352.88
2019-05-30T00:02:21.967Z,101357.88
2019-05-30T00:04:49.282Z,101350.34
2019-05-30T00:07:16.683Z,101356.31
2019-05-30T00:09:44.440Z,101351.57
2019-05-30T00:12:12.219Z,101348.18
2019-05-30T00:14:39.585Z,101350.20
2019-05-30T00:17:07.385Z,101343.84
2019-05-30T00:19:34.384Z,101346.02
2019-05-30T00:22:03.728Z,101339.23
2019-05-30T00:24:31.056Z,101341.09
2019-05-30T00:26:58.410Z,101340.78
2019-05-30T00:29:25.692Z,101334.91
2019-05-30T00:31:53.101Z,101333.59
2019-05-30T00:34:20.508Z,101342.02
2019-05-30T00:36:48.548Z,101347.80
2019-05-30T00:39:15.844Z,101334.91
2019-05-30T00:41:42.862Z,101331.92
2019-05-30T00:44:09.848Z,101333.60
2019-05-30T00:46:37.643Z,101330.02
2019-05-30T00:49:06.599Z,101331.27
2019-05-30T00:51:34.508Z,101326.77
2019-05-30T00:54:02.918Z,101329.45
2019-05-30T00:56:30.441Z,101336.02
2019-05-30T00:58:58.701Z,101324.31
2019-05-30T01:01:26.759Z,101327.41
2019-05-30T01:03:54.116Z,101324.95
2019-05-30T01:06:21.818Z,101327.53
2019-05-30T01:08:50.126Z,101326.67
2019-05-30T01:11:17.931Z,101331.24
2019-05-30T01:13:44.925Z,101329.74
2019-05-30T01:16:12.329Z,101332.99
2019-05-30T01:18:39.699Z,101319.59
2019-05-30T01:21:07.581Z,101329.74
2019-05-30T01:23:38.038Z,101323.14
2019-05-30T01:26:05.690Z,101319.54
2019-05-30T01:28:33.029Z,101315.11
2019-05-30T01:31:05.557Z,101312.48
2019-05-30T01:33:29.761Z,101316.93
2019-05-30T01:35:57.766Z,101317.85
2019-05-30T01:38:25.338Z,101318.13
2019-05-30T01:40:53.503Z,101315.61
2019-05-30T01:43:21.510Z,101315.57
2019-05-30T01:45:49.202Z,101314.94
2019-05-30T01:48:16.568Z,101310.95
2019-05-30T01:50:44.599Z,101311.45
2019-05-30T01:53:11.710Z,101304.91
2019-05-30T01:55:39.170Z,101306.51
2019-05-30T01:58:07.239Z,101304.73
2019-05-30T02:00:40.831Z,101302.56
2019-05-30T02:03:09.506Z,101313.45
2019-05-30T02:05:37.391Z,101305.12
2019-05-30T02:08:05.426Z,101309.52
2019-05-30T02:10:33.269Z,101308.59
2019-05-30T02:13:01.199Z,101301.41
2019-05-30T02:15:28.654Z,101300.77
2019-05-30T02:17:55.743Z,101295.38
2019-05-30T02:20:22.793Z,101297.61
2019-05-30T02:22:50.187Z,101300.17
2019-05-30T02:25:17.736Z,101297.31
2019-05-30T02:27:45.489Z,101297.47
2019-05-30T02:30:15.026Z,101296.75
2019-05-30T02:32:43.313Z,101301.03
2019-05-30T02:35:12.765Z,101300.61
2019-05-30T02:37:39.922Z,101300.96
2019-05-30T02:40:10.564Z,101303.12
2019-05-30T02:42:37.618Z,101307.73
2019-05-30T02:45:07.862Z,101306.30
2019-05-30T02:47:36.359Z,101306.64
2019-05-30T02:50:06.126Z,101308.81
2019-05-30T02:52:35.182Z,101296.09
2019-05-30T02:55:03.929Z,101297.34
2019-05-30T02:57:32.311Z,101304.61
2019-05-30T03:00:01.745Z,101303.38
2019-05-30T03:02:28.924Z,101304.23
2019-05-30T03:04:56.412Z,101305.78
2019-05-30T03:07:24.103Z,101311.83
2019-05-30T03:09:51.778Z,101307.38
2019-05-30T03:12:19.360Z,101310.12
2019-05-30T03:14:47.427Z,101305.53
2019-05-30T03:17:15.211Z,101314.73
2019-05-30T03:19:43.203Z,101313.35
2019-05-30T03:22:12.209Z,101309.98
2019-05-30T03:24:40.371Z,101310.24
2019-05-30T03:27:09.915Z,101314.60
2019-05-30T03:29:37.236Z,101313.03
2019-05-30T03:32:39.088Z,101308.56
2019-05-30T03:34:36.409Z,101311.23
2019-05-30T03:37:09.366Z,101306.02
2019-05-30T03:39:35.078Z,101304.48
2019-05-30T03:42:04.496Z,101310.06
2019-05-30T03:44:32.059Z,101304.33
2019-05-30T03:47:03.919Z,101309.91
2019-05-30T03:49:35.322Z,101311.63
2019-05-30T03:52:08.092Z,101315.20
2019-05-30T03:54:36.163Z,101309.77
2019-05-30T03:57:13.983Z,101316.75
2019-05-30T03:59:46.546Z,101307.47
2019-05-30T04:02:22.691Z,101308.14
2019-05-30T04:04:56.705Z,101309.11
2019-05-30T04:07:26.552Z,101307.18
2019-05-30T04:09:56.819Z,101306.94
2019-05-30T04:12:52.131Z,101309.00
2019-05-30T04:15:32.141Z,101311.37
2019-05-30T04:18:00.186Z,101310.89
2019-05-30T04:20:27.522Z,101311.03
2019-05-30T04:22:54.646Z,101311.32
2019-05-30T04:25:22.326Z,101312.17
2019-05-30T04:27:49.648Z,101316.08
2019-05-30T04:30:18.598Z,101312.99
2019-05-30T04:32:46.600Z,101314.42
2019-05-30T04:35:14.687Z,101311.41
2019-05-30T04:37:42.850Z,101310.03
2019-05-30T04:40:11.403Z,101316.42
2019-05-30T04:42:39.187Z,101315.75
2019-05-30T04:45:07.535Z,101314.38
2019-05-30T04:47:35.632Z,101314.53
2019-05-30T04:50:04.861Z,101318.10
2019-05-30T04:52:32.585Z,101317.61
2019-05-30T04:54:59.940Z,101320.66
2019-05-30T04:57:27.340Z,101324.23
2019-05-30T04:59:54.529Z,101323.62
2019-05-30T05:02:23.304Z,101326.06
2019-05-30T05:04:51.472Z,101325.99
2019-05-30T05:07:19.873Z,101332.12
2019-05-30T05:09:47.402Z,101332.12
2019-05-30T05:12:16.117Z,101334.06
2019-05-30T05:14:43.610Z,101328.78
2019-05-30T05:17:12.734Z,101334.44
2019-05-30T05:19:41.080Z,101335.48
2019-05-30T05:22:09.135Z,101335.16
2019-05-30T05:24:36.624Z,101338.75
2019-05-30T05:27:04.238Z,101339.72
2019-05-30T05:29:31.930Z,101337.54
2019-05-30T05:31:59.261Z,101338.87
2019-05-30T05:34:27.037Z,101338.50
2019-05-30T05:36:54.483Z,101345.91
2019-05-30T05:39:22.238Z,101341.53
2019-05-30T05:41:50.443Z,101340.97
2019-05-30T05:44:18.301Z,101334.35
2019-05-30T05:46:46.496Z,101336.89
2019-05-30T05:49:13.588Z,101351.06
2019-05-30T05:51:40.598Z,101331.91
2019-05-30T05:54:07.658Z,101336.70
2019-05-30T05:56:35.039Z,101328.78
2019-05-30T05:59:02.014Z,101341.75
2019-05-30T06:01:30.142Z,101338.86
2019-05-30T06:04:12.164Z,101338.59
2019-05-30T06:06:27.425Z,101343.06
2019-05-30T06:08:55.352Z,101341.05
2019-05-30T06:11:22.748Z,101346.63
2019-05-30T06:13:50.337Z,101350.92
2019-05-30T06:16:17.813Z,101352.89
2019-05-30T06:18:47.475Z,101353.23
2019-05-30T06:21:14.883Z,101356.47
2019-05-30T06:23:45.460Z,101360.23
2019-05-30T06:26:11.943Z,101357.17
2019-05-30T06:28:39.644Z,101354.96
2019-05-30T06:31:07.003Z,101357.92
2019-05-30T06:33:35.242Z,101353.22
2019-05-30T06:36:03.933Z,101352.05
2019-05-30T06:38:31.692Z,101360.98
2019-05-30T06:40:59.547Z,101354.05
2019-05-30T06:43:28.139Z,101352.26
2019-05-30T06:45:55.742Z,101348.94
2019-05-30T06:48:24.650Z,101355.78
2019-05-30T06:50:52.903Z,101355.31
2019-05-30T06:53:21.027Z,101348.94
2019-05-30T06:55:48.093Z,101359.13
2019-05-30T06:58:15.164Z,101355.70
2019-05-30T07:00:42.301Z,101357.06
2019-05-30T07:03:10.067Z,101360.34
2019-05-30T07:05:37.977Z,101363.67
2019-05-30T07:08:05.602Z,101374.20
2019-05-30T07:10:33.388Z,101371.19
2019-05-30T07:13:03.990Z,101374.69
2019-05-30T07:15:31.466Z,101382.41
2019-05-30T07:17:58.837Z,101382.91
2019-05-30T07:20:25.864Z,101382.05
2019-05-30T07:22:53.329Z,101373.84
2019-05-30T07:25:21.348Z,101379.87
2019-05-30T07:27:48.402Z,101377.59
2019-05-30T07:30:15.914Z,101378.99
2019-05-30T07:32:45.455Z,101383.42
2019-05-30T07:35:12.677Z,101384.84
2019-05-30T07:37:40.334Z,101394.53
2019-05-30T07:40:09.263Z,101383.47
2019-05-30T07:42:36.810Z,101394.31
2019-05-30T07:45:05.625Z,101391.77
2019-05-30T07:47:34.314Z,101395.88
2019-05-30T07:50:01.635Z,101393.67
2019-05-30T07:52:30.529Z,101401.66
2019-05-30T07:54:58.271Z,101390.05
2019-05-30T07:57:30.241Z,101394.52
2019-05-30T08:00:02.794Z,101401.66
2019-05-30T08:02:31.606Z,101403.67
2019-05-30T08:05:03.028Z,101402.02
2019-05-30T08:07:30.705Z,101399.81
2019-05-30T08:09:57.830Z,101397.88
2019-05-30T08:12:25.601Z,101387.94
2019-05-30T08:14:53.391Z,101382.34
2019-05-30T08:17:20.463Z,101381.07
2019-05-30T08:19:47.849Z,101385.51
2019-05-30T08:22:15.877Z,101386.83
2019-05-30T08:24:43.975Z,101382.95
2019-05-30T08:27:11.330Z,101385.81
2019-05-30T08:29:39.154Z,101392.66
2019-05-30T08:32:06.595Z,101396.45
2019-05-30T08:34:34.706Z,101388.28
2019-05-30T08:37:02.435Z,101389.02
2019-05-30T08:39:30.917Z,101386.77
2019-05-30T08:42:13.092Z,101392.24
2019-05-30T08:44:40.798Z,101392.61
2019-05-30T08:47:08.299Z,101389.89
2019-05-30T08:49:36.143Z,101394.28
2019-05-30T08:52:03.405Z,101389.63
2019-05-30T08:54:30.463Z,101387.78
2019-05-30T08:56:58.125Z,101390.98
2019-05-30T08:59:25.198Z,101388.34
2019-05-30T09:01:53.259Z,101386.55
2019-05-30T09:04:21.359Z,101381.72
2019-05-30T09:06:48.404Z,101378.79
2019-05-30T09:09:15.453Z,101379.08
2019-05-30T09:11:42.896Z,101381.44
2019-05-30T09:14:10.633Z,101373.79
2019-05-30T09:16:38.930Z,101369.95
2019-05-30T09:19:05.994Z,101375.22
2019-05-30T09:21:33.356Z,101373.31
2019-05-30T09:24:02.892Z,101376.50
2019-05-30T09:26:30.249Z,101371.63
2019-05-30T09:28:57.594Z,101371.90
2019-05-30T09:31:24.924Z,101369.21
2019-05-30T09:33:52.199Z,101372.72
2019-05-30T09:36:19.274Z,101371.91
2019-05-30T09:38:49.648Z,101382.77
2019-05-30T09:41:17.511Z,101373.69
2019-05-30T09:43:46.346Z,101374.23
2019-05-30T09:46:14.047Z,101380.23
2019-05-30T09:48:43.193Z,101374.95
2019-05-30T09:51:11.143Z,101371.41
2019-05-30T09:53:39.301Z,101380.98
2019-05-30T09:56:06.661Z,101384.71
2019-05-30T09:58:34.434Z,101385.33
2019-05-30T10:01:03.708Z,101384.12
2019-05-30T10:03:30.859Z,101388.08
2019-05-30T10:05:58.614Z,101401.78
2019-05-30T10:08:26.033Z,101396.18
2019-05-30T10:10:53.641Z,101391.09
2019-05-30T10:13:22.459Z,101390.17
2019-05-30T10:15:50.525Z,101398.06
2019-05-30T10:18:22.162Z,101400.54
2019-05-30T10:21:25.909Z,101403.36
2019-05-30T10:23:53.813Z,101402.36
2019-05-30T10:26:21.353Z,101403.30
2019-05-30T10:28:49.536Z,101403.13
2019-05-30T10:31:17.151Z,101407.66
2019-05-30T10:33:45.940Z,101400.73
2019-05-30T10:36:20.687Z,101394.89
2019-05-30T10:38:50.278Z,101395.15
2019-05-30T10:41:21.066Z,101397.71
2019-05-30T10:43:51.037Z,101394.70
2019-05-30T10:46:19.011Z,101392.10
2019-05-30T10:48:47.328Z,101398.15
2019-05-30T10:51:15.317Z,101399.73
2019-05-30T10:53:42.825Z,101399.95
2019-05-30T10:58:50.774Z,101407.64
2019-05-30T11:01:18.202Z,101413.77
2019-05-30T11:03:46.029Z,101411.30
2019-05-30T11:06:26.789Z,101406.58
2019-05-30T11:08:57.782Z,101412.78
2019-05-30T11:11:25.201Z,101415.33
2019-05-30T11:13:53.285Z,101418.39
2019-05-30T11:16:21.222Z,101410.26
2019-05-30T11:18:49.352Z,101411.46
2019-05-30T11:21:19.026Z,101413.69
2019-05-30T11:23:46.464Z,101414.73
2019-05-30T11:26:14.116Z,101406.81
2019-05-30T11:28:41.182Z,101417.31
2019-05-30T11:31:08.963Z,101416.52
2019-05-30T11:33:36.287Z,101423.41
2019-05-30T11:36:04.153Z,101421.67
2019-05-30T11:38:32.346Z,101428.09
2019-05-30T11:41:00.484Z,101427.39
2019-05-30T11:43:28.254Z,101424.19
2019-05-30T11:45:56.094Z,101426.92
2019-05-30T11:48:23.604Z,101424.36
2019-05-30T11:50:51.937Z,101431.59
2019-05-30T11:53:19.503Z,101437.37
2019-05-30T11:55:47.082Z,101433.41
2019-05-30T11:58:19.223Z,101437.46
2019-05-30T12:00:45.443Z,101437.33
2019-05-30T12:03:12.844Z,101432.64
2019-05-30T12:05:39.899Z,101443.09
2019-05-30T12:08:07.335Z,101446.56
2019-05-30T12:10:34.727Z,101439.66
2019-05-30T12:13:02.045Z,101447.85
2019-05-30T12:15:29.431Z,101441.93
2019-05-30T12:17:57.487Z,101443.01
2019-05-30T12:20:24.815Z,101451.59
2019-05-30T12:22:53.786Z,101453.77
2019-05-30T12:25:21.095Z,101452.17
2019-05-30T12:27:48.929Z,101451.48
2019-05-30T12:30:16.338Z,101445.48
2019-05-30T12:32:43.834Z,101452.00
2019-05-30T12:35:13.060Z,101455.70
2019-05-30T12:37:54.072Z,101464.45
2019-05-30T12:40:10.823Z,101459.48
2019-05-30T12:42:38.118Z,101455.70
2019-05-30T12:45:07.363Z,101459.92
2019-05-30T12:47:34.515Z,101463.02
2019-05-30T12:50:03.466Z,101465.91
2019-05-30T12:52:31.350Z,101461.55
2019-05-30T12:54:58.845Z,101468.69
2019-05-30T12:57:27.382Z,101467.13
2019-05-30T12:59:55.148Z,101467.13
2019-05-30T13:02:22.743Z,101466.56
2019-05-30T13:04:50.468Z,101445.08
2019-05-30T13:07:18.195Z,101465.69
2019-05-30T13:09:45.971Z,101466.73
2019-05-30T13:12:14.018Z,101461.24
2019-05-30T13:14:41.839Z,101463.13
2019-05-30T13:17:09.940Z,101459.81
2019-05-30T13:19:37.447Z,101459.11
2019-05-30T13:22:05.048Z,101465.97
2019-05-30T13:24:33.079Z,101466.91
2019-05-30T13:27:05.966Z,101464.81
2019-05-30T13:29:33.195Z,101466.95
2019-05-30T13:32:04.691Z,101470.13
2019-05-30T13:34:32.558Z,101479.79
2019-05-30T13:37:00.704Z,101472.89
2019-05-30T13:39:29.736Z,101448.25
2019-05-30T13:41:57.524Z,101480.98
2019-05-30T13:44:25.238Z,101470.66
2019-05-30T13:46:53.427Z,101470.90
2019-05-30T13:49:20.475Z,101468.95
2019-05-30T13:51:47.516Z,101471.28
2019-05-30T13:54:14.534Z,101477.75
2019-05-30T13:56:41.889Z,101446.73
2019-05-30T13:59:10.114Z,101469.94
2019-05-30T14:01:37.965Z,101480.92
2019-05-30T14:04:06.281Z,101470.09
2019-05-30T14:06:33.421Z,101476.89
2019-05-30T14:09:02.849Z,101473.03
2019-05-30T14:11:29.916Z,101477.52
2019-05-30T14:13:57.679Z,101480.31
2019-05-30T14:16:25.589Z,101479.90
2019-05-30T14:18:53.024Z,101480.87
2019-05-30T14:21:20.788Z,101476.02
2019-05-30T14:23:48.775Z,101474.52
2019-05-30T14:26:16.540Z,101476.55
2019-05-30T14:28:44.171Z,101479.61
2019-05-30T14:31:13.564Z,101480.27
2019-05-30T14:33:41.153Z,101475.59
2019-05-30T14:36:12.113Z,101477.70
2019-05-30T14:38:38.925Z,101473.50
2019-05-30T14:41:09.079Z,101474.41
2019-05-30T14:43:38.976Z,101476.76
2019-05-30T14:46:06.387Z,101479.28
2019-05-30T14:48:34.198Z,101475.98
2019-05-30T14:51:01.292Z,101480.61
2019-05-30T14:53:28.681Z,101490.46
2019-05-30T14:55:56.238Z,101481.42
2019-05-30T14:58:26.509Z,101485.16
2019-05-30T15:00:54.691Z,101477.92
2019-05-30T15:03:22.430Z,101479.05
2019-05-30T15:05:50.769Z,101473.89
2019-05-30T15:08:17.920Z,101469.50
2019-05-30T15:10:45.284Z,101470.63
2019-05-30T15:13:13.743Z,101467.41
2019-05-30T15:15:41.592Z,101479.05
2019-05-30T15:18:09.456Z,101476.35
2019-05-30T15:20:39.750Z,101467.50
2019-05-30T15:23:07.599Z,101477.72
2019-05-30T15:25:35.237Z,101490.27
2019-05-30T15:28:02.380Z,101479.06
2019-05-30T15:30:30.364Z,101478.02
2019-05-30T15:32:57.982Z,101481.70
2019-05-30T15:35:25.361Z,101469.83
2019-05-30T15:37:53.171Z,101481.84
2019-05-30T15:40:22.803Z,101481.75
2019-05-30T15:42:53.063Z,101486.86
2019-05-30T15:45:18.907Z,101492.43
2019-05-30T15:47:46.642Z,101491.25
2019-05-30T15:50:15.373Z,101481.78
2019-05-30T15:52:44.356Z,101486.94
2019-05-30T15:55:11.649Z,101478.01
2019-05-30T15:57:39.391Z,101484.67
2019-05-30T16:00:07.892Z,101485.39
2019-05-30T16:02:35.674Z,101480.38
2019-05-30T16:05:03.735Z,101476.83
2019-05-30T16:07:30.759Z,101478.77
2019-05-30T16:09:58.634Z,101475.08
2019-05-30T16:12:26.093Z,101472.95
2019-05-30T16:14:53.480Z,101473.70
2019-05-30T16:17:21.774Z,101475.03
2019-05-30T16:19:49.675Z,101476.59
2019-05-30T16:22:18.277Z,101475.07
2019-05-30T16:24:45.942Z,101475.27
2019-05-30T16:27:13.760Z,101473.61
2019-05-30T16:29:41.728Z,101468.11
2019-05-30T16:32:09.768Z,101465.49
2019-05-30T16:34:37.280Z,101469.65
2019-05-30T16:37:04.346Z,101468.89
2019-05-30T16:39:31.929Z,101476.60
2019-05-30T16:41:59.331Z,101469.59
2019-05-30T16:44:26.867Z,101474.75
2019-05-30T16:46:53.918Z,101479.64
2019-05-30T16:49:22.937Z,101475.80
2019-05-30T16:51:50.457Z,101477.93
2019-05-30T16:54:19.185Z,101462.02
2019-05-30T16:56:46.868Z,101463.17
2019-05-30T16:59:14.716Z,101460.54
2019-05-30T17:01:42.100Z,101458.69
2019-05-30T17:04:10.883Z,101450.16
2019-05-30T17:06:38.309Z,101450.31
2019-05-30T17:09:06.291Z,101452.89
2019-05-30T17:11:33.709Z,101451.27
2019-05-30T17:14:03.273Z,101445.42
2019-05-30T17:16:30.657Z,101434.23
2019-05-30T17:18:58.466Z,101456.19
2019-05-30T17:21:26.816Z,101460.40
2019-05-30T17:23:57.278Z,101460.17
2019-05-30T17:26:25.366Z,101454.63
2019-05-30T17:28:53.338Z,101457.98
2019-05-30T17:31:21.845Z,101452.53
2019-05-30T17:33:49.736Z,101456.36
2019-05-30T17:36:18.022Z,101455.03
2019-05-30T17:38:45.505Z,101444.88
2019-05-30T17:41:12.566Z,101445.33
2019-05-30T17:43:40.465Z,101453.05
2019-05-30T17:46:08.322Z,101452.38
2019-05-30T17:48:36.565Z,101444.92
2019-05-30T17:51:03.705Z,101451.69
2019-05-30T17:53:30.771Z,101451.63
2019-05-30T17:56:08.229Z,101449.22
2019-05-30T17:58:35.809Z,101449.23
2019-05-30T18:01:03.575Z,101449.66
2019-05-30T18:03:31.960Z,101449.50
2019-05-30T18:05:59.048Z,101449.80
2019-05-30T18:08:26.909Z,101455.61
2019-05-30T18:10:54.760Z,101449.60
2019-05-30T18:13:23.043Z,101448.59
2019-05-30T18:15:50.265Z,101454.22
2019-05-30T18:18:17.603Z,101450.23
2019-05-30T18:20:48.379Z,101454.22
2019-05-30T18:23:14.797Z,101460.02
2019-05-30T18:25:41.865Z,101452.19
2019-05-30T18:28:09.658Z,101456.56
2019-05-30T18:30:41.780Z,101456.17
2019-05-30T18:33:09.558Z,101466.28
2019-05-30T18:35:37.596Z,101457.16
2019-05-30T18:38:04.675Z,101463.16
2019-05-30T18:40:33.259Z,101459.77
2019-05-30T18:43:01.136Z,101464.44
2019-05-30T18:45:36.360Z,101465.20
2019-05-30T18:48:04.026Z,101469.88
2019-05-30T18:50:32.016Z,101463.08
2019-05-30T18:52:59.655Z,101467.14
2019-05-30T18:55:28.472Z,101468.94
2019-05-30T18:57:56.184Z,101461.21
2019-05-30T19:00:23.418Z,101454.81
2019-05-30T19:02:50.836Z,101457.84
2019-05-30T19:05:18.646Z,101466.56
2019-05-30T19:07:46.483Z,101464.20
2019-05-30T19:10:13.615Z,101468.77
2019-05-30T19:12:41.437Z,101465.60
2019-05-30T19:15:08.944Z,101467.76
2019-05-30T19:17:36.372Z,101465.03
2019-05-30T19:20:04.601Z,101463.32
2019-05-30T19:22:32.469Z,101428.77
2019-05-30T19:24:59.989Z,101468.64
2019-05-30T19:27:28.729Z,101468.83
2019-05-30T19:29:57.468Z,101466.78
2019-05-30T19:32:24.909Z,101472.44
2019-05-30T19:34:52.647Z,101478.16
2019-05-30T19:37:20.051Z,101471.08
2019-05-30T19:39:47.157Z,101479.75
2019-05-30T19:42:14.964Z,101476.16
2019-05-30T19:44:42.350Z,101477.95
2019-05-30T19:47:09.806Z,101483.59
2019-05-30T19:49:38.592Z,101483.33
2019-05-30T19:52:06.074Z,101478.67
2019-05-30T19:54:33.137Z,101487.00
2019-05-30T19:57:00.502Z,101492.03
2019-05-30T19:59:27.975Z,101495.73
2019-05-30T20:01:55.085Z,101497.90
2019-05-30T20:04:22.607Z,101497.90
2019-05-30T20:06:50.270Z,101503.05
2019-05-30T20:09:17.318Z,101509.44
2019-05-30T20:12:01.834Z,101503.75
2019-05-30T20:14:14.332Z,101509.05
2019-05-30T20:16:42.074Z,101509.24
2019-05-30T20:19:09.881Z,101510.14
2019-05-30T20:21:37.865Z,101513.10
2019-05-30T20:24:05.626Z,101511.98
2019-05-30T20:26:34.425Z,101511.09
2019-05-30T20:29:04.644Z,101510.90
2019-05-30T20:31:33.324Z,101502.58
2019-05-30T20:34:01.453Z,101505.69
2019-05-30T20:36:29.171Z,101507.13
2019-05-30T20:38:57.110Z,101511.56
2019-05-30T20:41:24.171Z,101518.13
2019-05-30T20:43:51.537Z,101524.84
2019-05-30T20:46:23.230Z,101517.54
2019-05-30T20:48:48.729Z,101511.98
2019-05-30T20:51:21.100Z,101519.40
2019-05-30T20:53:45.483Z,101515.27
2019-05-30T20:56:13.069Z,101513.41
2019-05-30T20:58:41.825Z,101511.59
2019-05-30T21:01:09.686Z,101518.64
2019-05-30T21:03:37.870Z,101521.97
2019-05-30T21:06:05.453Z,101526.40
2019-05-30T21:08:34.881Z,101528.53
2019-05-30T21:11:02.521Z,101529.80
2019-05-30T21:13:34.235Z,101529.50
2019-05-30T21:16:03.998Z,101532.89
2019-05-30T21:18:35.642Z,101536.68
2019-05-30T21:21:03.174Z,101541.43
2019-05-30T21:23:30.712Z,101539.83
2019-05-30T21:25:58.478Z,101539.38
2019-05-30T21:28:26.017Z,101545.41
2019-05-30T21:30:53.480Z,101538.70
2019-05-30T21:33:21.301Z,101548.23
2019-05-30T21:35:48.501Z,101543.81
2019-05-30T21:38:15.819Z,101545.17
2019-05-30T21:40:44.473Z,101543.45
2019-05-30T21:43:12.335Z,101545.35
2019-05-30T21:45:40.353Z,101538.50
2019-05-30T21:48:07.471Z,101545.00
2019-05-30T21:50:34.511Z,101544.42
2019-05-30T21:53:01.533Z,101547.25
2019-05-30T21:55:28.612Z,101545.39
2019-05-30T21:57:55.798Z,101543.86
2019-05-30T22:00:53.331Z,101538.33
2019-05-30T22:03:21.073Z,101542.14
2019-05-30T22:05:48.620Z,101544.19
2019-05-30T22:08:17.589Z,101546.83
2019-05-30T22:10:45.418Z,101546.43
2019-05-30T22:13:12.823Z,101545.04
2019-05-30T22:15:41.620Z,101546.96
2019-05-30T22:18:09.375Z,101542.69
2019-05-30T22:20:37.118Z,101543.78
2019-05-30T22:23:04.465Z,101541.78
2019-05-30T22:25:31.891Z,101542.06
2019-05-30T22:27:58.961Z,101541.45
2019-05-30T22:30:26.308Z,101546.92
2019-05-30T22:32:53.731Z,101547.09
2019-05-30T22:35:21.253Z,101548.87
2019-05-30T22:37:48.928Z,101548.13
2019-05-30T22:40:16.193Z,101547.34
2019-05-30T22:42:46.030Z,101541.58
2019-05-30T22:45:14.835Z,101541.38
2019-05-30T22:47:42.566Z,101538.16
2019-05-30T22:50:09.978Z,101541.16
2019-05-30T22:52:37.032Z,101536.57
2019-05-30T22:55:04.237Z,101534.33
2019-05-30T22:57:31.954Z,101535.02
2019-05-30T22:59:59.995Z,101533.00
2019-05-30T23:02:28.174Z,101529.31
2019-05-30T23:04:56.416Z,101529.16
2019-05-30T23:07:23.873Z,101528.42
2019-05-30T23:09:51.877Z,101530.80
2019-05-30T23:12:19.683Z,101529.32
2019-05-30T23:14:48.025Z,101518.87
2019-05-30T23:17:15.485Z,101527.14
2019-05-30T23:19:42.517Z,101527.58
2019-05-30T23:22:09.594Z,101522.64
2019-05-30T23:24:36.778Z,101517.12
2019-05-30T23:27:03.884Z,101523.10
2019-05-30T23:29:30.937Z,101514.36
2019-05-30T23:31:58.412Z,101517.86
2019-05-30T23:34:25.505Z,101516.49
2019-05-30T23:36:53.034Z,101517.47
2019-05-30T23:39:21.415Z,101517.70
2019-05-30T23:41:48.919Z,101514.34
2019-05-30T23:44:16.207Z,101517.34
2019-05-30T23:46:43.274Z,101518.05
2019-05-30T23:49:10.631Z,101510.22
2019-05-30T23:51:38.405Z,101505.17
2019-05-30T23:54:06.082Z,101504.97
2019-05-30T23:56:33.703Z,101501.11
2019-05-30T23:59:01.326Z,101499.56
